Time;durP1;ratioP1;P1;durP2;ratioP2;P2;SDS_P1;SDS_P2;PMS_P1;PMS_P2;Temp;Humidity;BMP_temperature;BMP_pressure;BME280_temperature;BME280_humidity;BME280_pressure;Samples;Min_cycle;Max_cycle;Signal;HPM_P1;HPM_P2
2021/05/24 00:01:14;;;;;;;2.67;2.50;;;19.50;99.90;;;;;;5139673;27;20441;-40
2021/05/24 00:03:44;;;;;;;3.20;3.00;;;19.60;99.90;;;;;;5135134;27;20473;-41
2021/05/24 00:06:15;;;;;;;3.93;2.87;;;19.80;99.90;;;;;;5145913;27;20441;-42
2021/05/24 00:08:45;;;;;;;2.47;2.37;;;19.70;99.90;;;;;;5145351;27;20419;-43
2021/05/24 00:11:17;;;;;;;3.13;2.27;;;19.60;99.90;;;;;;5145021;27;20488;-42
2021/05/24 00:13:53;;;;;;;2.47;2.37;;;19.70;99.90;;;;;;5143664;27;20522;-43
2021/05/24 00:16:25;;;;;;;2.53;2.40;;;19.60;99.90;;;;;;5145952;27;20467;-42
2021/05/24 00:18:56;;;;;;;2.70;2.50;;;19.60;99.90;;;;;;5145684;27;20423;-43
2021/05/24 00:21:26;;;;;;;2.37;2.17;;;19.50;99.90;;;;;;5145525;27;20758;-42
2021/05/24 00:23:57;;;;;;;2.33;2.20;;;19.40;99.90;;;;;;5144934;27;20559;-40
2021/05/24 00:26:27;;;;;;;2.30;2.20;;;19.30;99.90;;;;;;5145327;27;20419;-43
2021/05/24 00:28:58;;;;;;;2.40;2.20;;;19.30;99.90;;;;;;5144861;27;20470;-43
2021/05/24 00:31:30;;;;;;;2.07;1.97;;;19.20;99.90;;;;;;5144315;27;20436;-42
2021/05/24 00:34:01;;;;;;;2.37;2.20;;;19.30;99.90;;;;;;5144451;27;20488;-42
2021/05/24 00:36:31;;;;;;;2.90;2.40;;;19.30;99.90;;;;;;5145843;27;20528;-42
2021/05/24 00:39:02;;;;;;;2.10;1.90;;;19.30;99.90;;;;;;5145182;27;20449;-41
2021/05/24 00:41:33;;;;;;;2.20;2.10;;;19.30;99.90;;;;;;5144093;27;20441;-41
2021/05/24 00:44:03;;;;;;;2.70;2.50;;;19.10;99.90;;;;;;5144120;27;20488;-41
2021/05/24 00:46:36;;;;;;;2.37;2.17;;;19.10;99.90;;;;;;5142617;27;20407;-41
2021/05/24 00:49:07;;;;;;;2.47;2.27;;;19.10;99.90;;;;;;5144964;27;20468;-41
2021/05/24 00:51:37;;;;;;;2.10;2.00;;;19.20;99.90;;;;;;5144423;27;20453;-41
2021/05/24 00:54:08;;;;;;;2.20;2.03;;;19.40;99.90;;;;;;5144287;27;20448;-41
2021/05/24 00:56:38;;;;;;;1.97;1.87;;;19.50;99.90;;;;;;5143746;27;20420;-41
2021/05/24 00:59:09;;;;;;;1.90;1.80;;;19.40;99.90;;;;;;5144353;27;20819;-41
2021/05/24 01:01:41;;;;;;;1.70;1.60;;;19.20;99.90;;;;;;5144061;27;20445;-41
2021/05/24 01:04:12;;;;;;;2.07;1.83;;;19.10;99.90;;;;;;5145070;27;20484;-40
2021/05/24 01:06:42;;;;;;;1.90;1.80;;;19.10;99.90;;;;;;5144717;27;20423;-43
2021/05/24 01:09:13;;;;;;;1.80;1.70;;;18.80;99.90;;;;;;5144285;27;20456;-40
2021/05/24 01:11:43;;;;;;;2.10;1.67;;;18.70;99.90;;;;;;5144443;27;20423;-42
2021/05/24 01:14:14;;;;;;;1.50;1.40;;;18.60;99.90;;;;;;5143468;27;20445;-41
2021/05/24 01:16:48;;;;;;;1.80;1.70;;;18.70;99.90;;;;;;5145060;27;20501;-42
2021/05/24 01:19:19;;;;;;;7.00;6.30;;;18.70;99.90;;;;;;5144228;27;20420;-42
2021/05/24 01:21:51;;;;;;;3.17;1.73;;;18.80;99.90;;;;;;5143642;27;20419;-42
2021/05/24 01:24:22;;;;;;;2.40;1.33;;;18.90;97.00;;;;;;5144973;27;20536;-42
2021/05/24 01:26:53;;;;;;;1.63;1.53;;;18.90;98.10;;;;;;5143535;27;20419;-42
2021/05/24 01:29:23;;;;;;;1.33;1.27;;;19.00;97.40;;;;;;5143203;27;20564;-41
2021/05/24 01:31:54;;;;;;;1.13;1.13;;;19.10;97.10;;;;;;5144403;27;20445;-41
2021/05/24 01:34:24;;;;;;;1.40;1.03;;;19.10;96.40;;;;;;5143938;27;20423;-42
2021/05/24 01:36:56;;;;;;;0.83;0.83;;;19.10;95.50;;;;;;5145534;27;20445;-41
2021/05/24 01:39:27;;;;;;;1.13;1.13;;;19.30;96.00;;;;;;5143948;27;20484;-41
2021/05/24 01:41:57;;;;;;;1.30;1.20;;;19.30;94.90;;;;;;5144620;27;20459;-41
2021/05/24 01:44:35;;;;;;;1.50;1.40;;;19.40;94.80;;;;;;5142854;27;20440;-42
2021/05/24 01:47:06;;;;;;;1.50;1.40;;;19.40;94.80;;;;;;5144923;27;20482;-41
2021/05/24 01:49:46;;;;;;;1.70;1.60;;;19.10;94.30;;;;;;5143632;27;20447;-42
2021/05/24 01:52:20;;;;;;;2.80;2.40;;;19.00;95.50;;;;;;5143162;27;20580;-42
2021/05/24 01:54:50;;;;;;;3.13;2.80;;;19.00;99.90;;;;;;5143151;27;20468;-42
2021/05/24 01:57:21;;;;;;;3.00;2.80;;;19.00;99.90;;;;;;5143315;27;20416;-42
2021/05/24 01:59:51;;;;;;;3.33;3.13;;;18.90;99.90;;;;;;5142718;27;20428;-42
2021/05/24 02:02:21;;;;;;;3.33;3.13;;;19.00;99.90;;;;;;5143326;27;20776;-42
2021/05/24 02:04:52;;;;;;;4.20;3.60;;;19.10;99.90;;;;;;5143766;27;20453;-42
2021/05/24 02:07:26;;;;;;;3.20;3.00;;;19.10;99.90;;;;;;5144475;27;20764;-41
2021/05/24 02:09:57;;;;;;;3.70;3.50;;;19.10;99.90;;;;;;5143969;27;20454;-42
2021/05/24 02:12:28;;;;;;;3.67;3.43;;;18.80;99.90;;;;;;5143863;27;20449;-43
2021/05/24 02:14:59;;;;;;;3.33;3.03;;;18.50;99.90;;;;;;5142885;27;20429;-43
2021/05/24 02:17:29;;;;;;;3.57;3.37;;;18.50;99.90;;;;;;5144574;28;20444;-43
2021/05/24 02:20:00;;;;;;;5.20;3.47;;;18.60;99.90;;;;;;5143258;28;20488;-43
2021/05/24 02:22:32;;;;;;;3.50;3.30;;;18.60;99.90;;;;;;5143093;28;20449;-42
2021/05/24 02:25:02;;;;;;;3.03;2.83;;;18.40;99.90;;;;;;5135832;28;20456;-43
2021/05/24 02:27:33;;;;;;;3.20;2.90;;;18.10;99.90;;;;;;5143533;28;20557;-43
2021/05/24 02:30:05;;;;;;;3.30;3.00;;;17.80;99.90;;;;;;5142801;28;20527;-42
2021/05/24 02:32:36;;;;;;;4.10;3.20;;;17.60;99.90;;;;;;5141699;28;20482;-42
2021/05/24 02:35:09;;;;;;;3.93;3.63;;;17.30;99.90;;;;;;5142506;28;20444;-42
2021/05/24 02:37:41;;;;;;;5.13;3.13;;;17.10;99.90;;;;;;5143688;28;20452;-43
2021/05/24 02:40:13;;;;;;;3.47;2.97;;;17.00;99.90;;;;;;5142544;28;20944;-42
2021/05/24 02:42:44;;;;;;;2.93;2.53;;;16.90;99.90;;;;;;5143183;28;20882;-43
2021/05/24 02:45:16;;;;;;;3.93;2.93;;;16.80;99.90;;;;;;5138072;28;20449;-42
2021/05/24 02:47:48;;;;;;;4.60;3.50;;;16.60;99.90;;;;;;5144100;28;20446;-43
2021/05/24 02:50:22;;;;;;;3.33;3.13;;;16.60;99.90;;;;;;5142140;28;20453;-41
2021/05/24 02:52:55;;;;;;;5.33;4.40;;;16.30;99.90;;;;;;5143243;28;20531;-42
2021/05/24 02:55:26;;;;;;;4.13;3.83;;;16.30;99.90;;;;;;5142570;28;20445;-42
2021/05/24 02:57:56;;;;;;;3.50;3.20;;;16.20;99.90;;;;;;5142939;28;20472;-42
2021/05/24 03:00:28;;;;;;;4.47;3.07;;;16.10;99.90;;;;;;5142105;28;20497;-41
2021/05/24 03:02:58;;;;;;;3.63;3.13;;;16.00;99.90;;;;;;5143561;27;20545;-41
2021/05/24 03:05:29;;;;;;;4.00;3.70;;;15.90;99.90;;;;;;5129934;27;20433;-41
2021/05/24 03:08:02;;;;;;;3.77;3.47;;;15.80;99.90;;;;;;5141088;27;20558;-41
2021/05/24 03:10:33;;;;;;;3.40;3.10;;;15.80;99.90;;;;;;5146821;27;20792;-41
2021/05/24 03:13:03;;;;;;;4.20;3.80;;;15.80;99.90;;;;;;5146446;27;20444;-41
2021/05/24 03:15:34;;;;;;;3.33;3.03;;;15.70;99.90;;;;;;5146299;27;20452;-42
2021/05/24 03:18:04;;;;;;;2.90;2.70;;;15.60;99.90;;;;;;5147594;27;20531;-41
2021/05/24 03:20:35;;;;;;;4.13;3.73;;;15.50;99.90;;;;;;5146017;27;20466;-42
2021/05/24 03:23:06;;;;;;;4.00;3.03;;;15.50;99.90;;;;;;5146149;27;20484;-42
2021/05/24 03:25:37;;;;;;;3.80;3.40;;;15.40;99.90;;;;;;5145512;27;22123;-42
2021/05/24 03:28:08;;;;;;;4.17;3.67;;;15.40;99.90;;;;;;5146614;27;20437;-41
2021/05/24 03:30:38;;;;;;;5.10;3.40;;;15.40;99.90;;;;;;5146475;27;20498;-42
2021/05/24 03:33:09;;;;;;;4.13;3.40;;;15.20;99.90;;;;;;5146298;27;20453;-42
2021/05/24 03:35:39;;;;;;;4.50;3.70;;;15.10;99.90;;;;;;5146249;27;20464;-41
2021/05/24 03:38:11;;;;;;;3.20;2.97;;;15.00;99.90;;;;;;5146408;27;20478;-42
2021/05/24 03:40:41;;;;;;;4.13;3.73;;;15.00;99.90;;;;;;5146486;27;20517;-42
2021/05/24 03:43:12;;;;;;;5.90;3.57;;;14.90;99.90;;;;;;5145994;27;21035;-42
2021/05/24 03:45:43;;;;;;;4.43;3.80;;;14.80;99.90;;;;;;5145678;27;20437;-42
2021/05/24 03:48:16;;;;;;;3.90;3.60;;;14.70;99.90;;;;;;5146330;27;20537;-42
2021/05/24 03:50:46;;;;;;;4.20;3.57;;;14.70;99.90;;;;;;5145976;27;20456;-41
2021/05/24 03:53:18;;;;;;;3.90;3.60;;;14.60;99.90;;;;;;5145838;27;20552;-41
2021/05/24 03:55:48;;;;;;;6.67;4.23;;;14.60;99.90;;;;;;5145249;27;20456;-41
2021/05/24 03:58:19;;;;;;;4.47;3.53;;;14.70;99.90;;;;;;5146115;27;20449;-41
2021/05/24 04:00:49;;;;;;;3.93;3.47;;;14.70;99.90;;;;;;5145772;27;20544;-41
2021/05/24 04:03:20;;;;;;;5.17;4.67;;;14.80;99.90;;;;;;5145496;27;20469;-41
2021/05/24 04:05:57;;;;;;;4.83;3.53;;;14.80;99.90;;;;;;5145957;27;20449;-41
2021/05/24 04:08:34;;;;;;;3.93;3.63;;;14.90;99.90;;;;;;5144507;27;20468;-41
2021/05/24 04:11:05;;;;;;;4.17;3.10;;;14.90;99.90;;;;;;5155927;27;20496;-40
2021/05/24 04:13:36;;;;;;;4.37;3.63;;;15.00;99.90;;;;;;5148779;27;20810;-41
2021/05/24 04:16:06;;;;;;;5.93;3.57;;;15.00;99.90;;;;;;5128528;27;20437;-40
2021/05/24 04:18:41;;;;;;;4.20;3.80;;;15.00;99.90;;;;;;5145951;27;20514;-41
2021/05/24 04:21:12;;;;;;;3.60;3.30;;;15.10;99.90;;;;;;5145612;27;20474;-40
2021/05/24 04:23:44;;;;;;;6.80;3.53;;;15.10;99.90;;;;;;5145251;27;20477;-41
2021/05/24 04:26:15;;;;;;;3.03;2.70;;;15.10;99.90;;;;;;5146025;27;20754;-41
2021/05/24 04:28:46;;;;;;;5.83;2.63;;;15.10;99.90;;;;;;5142046;27;20433;-40
2021/05/24 04:31:16;;;;;;;4.63;2.40;;;15.10;99.90;;;;;;5145721;27;20485;-40
2021/05/24 04:33:47;;;;;;;2.20;1.77;;;15.10;99.90;;;;;;5144063;27;20449;-42
2021/05/24 04:36:17;;;;;;;2.93;2.40;;;15.10;99.90;;;;;;5128909;27;20448;-41
2021/05/24 04:38:49;;;;;;;3.83;2.50;;;14.90;99.90;;;;;;5144885;27;20471;-41
2021/05/24 04:41:20;;;;;;;2.47;2.10;;;14.90;99.90;;;;;;5143458;27;20465;-42
2021/05/24 04:43:55;;;;;;;2.43;2.20;;;14.80;99.90;;;;;;5142777;27;20609;-40
2021/05/24 04:46:26;;;;;;;5.60;2.97;;;14.70;99.90;;;;;;5136051;27;20446;-41
2021/05/24 04:48:57;;;;;;;3.80;2.47;;;14.60;99.90;;;;;;5145212;27;20498;-38
2021/05/24 04:51:27;;;;;;;3.17;2.37;;;14.60;99.90;;;;;;5145151;27;20449;-42
2021/05/24 04:53:59;;;;;;;5.60;2.70;;;14.50;99.90;;;;;;5129157;27;20456;-41
2021/05/24 04:56:30;;;;;;;2.83;2.50;;;14.40;99.90;;;;;;5133169;27;20944;-41
2021/05/24 04:59:00;;;;;;;4.53;3.10;;;14.30;99.90;;;;;;5144614;27;20445;-41
2021/05/24 05:01:31;;;;;;;4.67;2.70;;;14.20;99.90;;;;;;5145632;27;20441;-40
2021/05/24 05:04:01;;;;;;;2.17;2.07;;;14.20;99.90;;;;;;5144596;27;20484;-42
2021/05/24 05:06:32;;;;;;;4.60;2.47;;;14.10;99.90;;;;;;5144837;27;20823;-43
2021/05/24 05:09:04;;;;;;;3.17;2.63;;;14.00;99.90;;;;;;5144619;27;20449;-41
2021/05/24 05:11:37;;;;;;;5.17;2.53;;;13.90;99.90;;;;;;5145791;27;20523;-41
2021/05/24 05:14:07;;;;;;;4.10;3.40;;;13.90;99.90;;;;;;5144174;27;20581;-41
2021/05/24 05:16:38;;;;;;;2.73;2.20;;;13.90;99.90;;;;;;5144693;27;20449;-41
2021/05/24 05:19:08;;;;;;;3.10;2.47;;;13.80;99.90;;;;;;5144064;27;20449;-42
2021/05/24 05:21:39;;;;;;;4.50;2.87;;;13.80;99.90;;;;;;5142799;27;20478;-41
2021/05/24 05:24:11;;;;;;;3.07;2.43;;;13.80;99.90;;;;;;5135022;27;20623;-42
2021/05/24 05:26:42;;;;;;;3.10;2.50;;;13.70;99.90;;;;;;5147358;27;20441;-40
2021/05/24 05:29:12;;;;;;;3.30;2.70;;;13.60;99.90;;;;;;5143718;27;20437;-41
2021/05/24 05:31:43;;;;;;;4.17;3.10;;;13.60;99.90;;;;;;5143010;27;20448;-41
2021/05/24 05:34:13;;;;;;;3.00;2.80;;;13.60;99.90;;;;;;5141355;27;20580;-41
2021/05/24 05:36:44;;;;;;;4.93;3.27;;;13.50;99.90;;;;;;5144031;27;20920;-40
2021/05/24 05:39:16;;;;;;;5.00;3.23;;;13.50;99.90;;;;;;5134737;27;20441;-40
2021/05/24 05:41:46;;;;;;;5.13;3.33;;;13.50;99.90;;;;;;5134785;27;20554;-41
2021/05/24 05:44:17;;;;;;;2.97;2.77;;;13.40;99.90;;;;;;5143672;27;20460;-41
2021/05/24 05:46:47;;;;;;;3.23;2.83;;;13.40;99.90;;;;;;5143337;27;20456;-41
2021/05/24 05:49:18;;;;;;;3.20;2.70;;;13.40;99.90;;;;;;5143877;27;20940;-41
2021/05/24 05:51:49;;;;;;;4.27;2.80;;;13.30;99.90;;;;;;5143969;27;20449;-42
2021/05/24 05:54:20;;;;;;;3.50;3.10;;;13.30;99.90;;;;;;5142302;27;20449;-40
2021/05/24 05:56:51;;;;;;;3.20;2.70;;;13.20;99.90;;;;;;5144541;27;20733;-40
2021/05/24 05:59:21;;;;;;;6.17;3.10;;;13.20;99.90;;;;;;5143466;27;20456;-40
2021/05/24 06:01:52;;;;;;;3.80;3.30;;;13.10;99.90;;;;;;5143190;27;20478;-41
2021/05/24 06:04:22;;;;;;;4.97;3.30;;;13.10;99.90;;;;;;5143788;27;20492;-41
2021/05/24 06:06:53;;;;;;;4.30;2.37;;;12.90;99.90;;;;;;5131646;27;20448;-41
2021/05/24 06:09:24;;;;;;;5.73;3.60;;;12.90;99.90;;;;;;5143242;27;20458;-40
2021/05/24 06:11:55;;;;;;;3.43;2.83;;;12.80;99.90;;;;;;5143401;27;20839;-40
2021/05/24 06:14:25;;;;;;;2.53;2.33;;;12.80;99.90;;;;;;5142697;27;20512;-41
2021/05/24 06:16:56;;;;;;;6.87;2.97;;;12.70;99.90;;;;;;5142711;28;20449;-41
2021/05/24 06:19:26;;;;;;;3.13;2.80;;;12.70;99.90;;;;;;5142824;28;20449;-42
2021/05/24 06:21:57;;;;;;;4.20;3.37;;;12.70;99.90;;;;;;5143131;28;20448;-42
2021/05/24 06:24:29;;;;;;;3.33;3.03;;;12.70;99.90;;;;;;5143445;28;20476;-42
2021/05/24 06:26:59;;;;;;;3.20;2.90;;;12.60;99.90;;;;;;5142837;28;20445;-42
2021/05/24 06:29:31;;;;;;;5.10;2.87;;;12.60;99.90;;;;;;5142883;28;20482;-40
2021/05/24 06:32:02;;;;;;;3.63;3.10;;;12.60;99.90;;;;;;5142993;28;20448;-42
2021/05/24 06:34:32;;;;;;;4.90;3.90;;;12.50;99.90;;;;;;5143841;28;20199;-40
2021/05/24 06:37:03;;;;;;;5.20;3.53;;;12.50;99.90;;;;;;5143057;28;20638;-41
2021/05/24 06:39:35;;;;;;;3.60;3.20;;;12.50;99.90;;;;;;5145454;27;20456;-40
2021/05/24 06:42:06;;;;;;;5.93;3.80;;;12.50;99.90;;;;;;5148684;27;20497;-41
2021/05/24 06:44:37;;;;;;;3.63;3.10;;;12.40;99.90;;;;;;5146591;27;20480;-41
2021/05/24 06:47:07;;;;;;;5.13;3.70;;;12.40;99.90;;;;;;5144131;27;20490;-40
2021/05/24 06:49:38;;;;;;;4.53;3.97;;;12.40;99.90;;;;;;5147536;27;20480;-41
2021/05/24 06:52:09;;;;;;;4.07;3.65;;;12.40;99.90;;;;;;5147427;27;20581;-41
2021/05/24 06:54:41;;;;;;;3.88;3.58;;;12.30;99.90;;;;;;5147199;27;20196;-42
2021/05/24 06:57:11;;;;;;;4.38;3.60;;;12.30;99.90;;;;;;5147652;27;20335;-41
2021/05/24 06:59:42;;;;;;;5.20;3.55;;;12.30;99.90;;;;;;5146595;27;20203;-40
2021/05/24 07:02:15;;;;;;;6.60;4.00;;;12.20;99.90;;;;;;5147446;27;20582;-40
2021/05/24 07:04:45;;;;;;;5.00;3.60;;;12.20;99.90;;;;;;5147082;27;20696;-41
2021/05/24 07:07:16;;;;;;;5.75;4.20;;;12.20;99.90;;;;;;5146979;27;20498;-41
2021/05/24 07:09:48;;;;;;;6.05;4.35;;;12.10;99.90;;;;;;5146921;27;20646;-41
2021/05/24 07:12:18;;;;;;;3.85;3.55;;;12.10;99.90;;;;;;5133471;27;20199;-40
2021/05/24 07:14:53;;;;;;;5.00;3.85;;;12.20;99.90;;;;;;5143475;27;20199;-41
2021/05/24 07:17:24;;;;;;;4.20;3.90;;;12.20;99.90;;;;;;5149534;27;20203;-40
2021/05/24 07:19:54;;;;;;;3.95;3.65;;;12.10;99.90;;;;;;5146314;27;20259;-41
2021/05/24 07:22:25;;;;;;;4.10;3.70;;;12.20;99.90;;;;;;5146646;27;20192;-40
2021/05/24 07:24:57;;;;;;;4.43;3.70;;;12.20;99.90;;;;;;5146882;27;20212;-40
2021/05/24 07:27:27;;;;;;;3.83;3.47;;;12.10;99.90;;;;;;5146287;27;20225;-41
2021/05/24 07:29:57;;;;;;;3.67;3.22;;;12.20;99.90;;;;;;5145963;27;20199;-40
2021/05/24 07:32:28;;;;;;;4.93;4.40;;;12.20;99.90;;;;;;5145941;27;20269;-41
2021/05/24 07:34:59;;;;;;;6.28;3.55;;;12.20;99.90;;;;;;5146542;27;20452;-41
2021/05/24 07:37:29;;;;;;;4.95;3.80;;;12.20;99.90;;;;;;5146664;27;20221;-41
2021/05/24 07:40:01;;;;;;;4.40;3.67;;;12.20;99.90;;;;;;5146295;27;20199;-41
2021/05/24 07:42:32;;;;;;;5.47;4.38;;;12.10;99.90;;;;;;5146621;27;20453;-41
2021/05/24 07:45:03;;;;;;;4.90;4.40;;;12.10;99.90;;;;;;5145152;27;20264;-40
2021/05/24 07:47:34;;;;;;;4.68;4.28;;;12.10;99.90;;;;;;5144996;27;20195;-38
2021/05/24 07:50:07;;;;;;;5.10;4.17;;;12.20;99.90;;;;;;5146171;27;20212;-41
2021/05/24 07:52:37;;;;;;;5.00;4.40;;;12.10;99.90;;;;;;5146286;27;20452;-41
2021/05/24 07:55:10;;;;;;;4.68;3.92;;;12.10;99.90;;;;;;5146381;27;20440;-41
2021/05/24 07:57:42;;;;;;;4.80;4.30;;;12.10;99.90;;;;;;5146385;27;20203;-41
2021/05/24 08:00:15;;;;;;;6.13;4.90;;;12.20;99.90;;;;;;5144884;27;20444;-41
2021/05/24 08:02:46;;;;;;;7.90;4.60;;;12.20;99.90;;;;;;5145629;27;20449;-41
2021/05/24 08:05:17;;;;;;;5.78;4.70;;;12.30;99.90;;;;;;5145694;27;20262;-41
2021/05/24 08:07:48;;;;;;;6.38;4.30;;;12.20;99.90;;;;;;5145570;27;20203;-40
2021/05/24 08:10:20;;;;;;;4.75;4.35;;;12.20;99.90;;;;;;5145851;27;20234;-41
2021/05/24 08:12:50;;;;;;;4.57;4.10;;;12.30;99.90;;;;;;5129315;27;20206;-40
2021/05/24 08:15:29;;;;;;;7.80;4.63;;;12.30;99.90;;;;;;5144693;27;20490;-41
2021/05/24 08:18:01;;;;;;;6.35;4.60;;;12.30;99.90;;;;;;5144184;27;20441;-41
2021/05/24 08:20:32;;;;;;;6.07;4.30;;;12.30;99.90;;;;;;5145284;27;20204;-40
2021/05/24 08:23:03;;;;;;;4.57;4.17;;;12.40;99.90;;;;;;5145106;27;20881;-37
2021/05/24 08:25:35;;;;;;;5.03;4.37;;;12.40;99.90;;;;;;5144201;27;20484;-40
2021/05/24 08:28:06;;;;;;;4.17;3.77;;;12.40;99.90;;;;;;5145154;27;20463;-40
2021/05/24 08:30:37;;;;;;;5.03;4.53;;;12.50;99.90;;;;;;5144380;27;20517;-40
2021/05/24 08:33:07;;;;;;;7.90;4.57;;;12.50;99.90;;;;;;5144662;27;20453;-40
2021/05/24 08:35:38;;;;;;;6.57;4.53;;;12.50;99.90;;;;;;5145213;27;20908;-41
2021/05/24 08:38:08;;;;;;;4.67;4.23;;;12.60;99.90;;;;;;5145207;27;20445;-40
2021/05/24 08:40:41;;;;;;;7.33;4.13;;;12.60;99.90;;;;;;5145082;27;20476;-40
2021/05/24 08:43:11;;;;;;;5.00;4.27;;;12.60;99.90;;;;;;5145265;27;20440;-41
2021/05/24 08:45:43;;;;;;;5.33;4.33;;;12.60;99.90;;;;;;5144339;27;20481;-41
2021/05/24 08:48:14;;;;;;;5.13;4.63;;;12.60;99.90;;;;;;5143727;27;20907;-40
2021/05/24 08:50:45;;;;;;;7.40;5.17;;;12.60;99.90;;;;;;5144620;27;20441;-40
2021/05/24 08:53:16;;;;;;;5.17;4.40;;;12.60;99.90;;;;;;5144946;27;20432;-41
2021/05/24 08:55:48;;;;;;;4.63;4.20;;;12.60;99.90;;;;;;5141585;27;20453;-41
2021/05/24 08:58:19;;;;;;;5.43;4.93;;;12.60;99.90;;;;;;5144699;27;20513;-40
2021/05/24 09:00:49;;;;;;;5.53;4.00;;;12.60;99.90;;;;;;5143747;27;20815;-41
2021/05/24 09:03:22;;;;;;;4.57;4.17;;;12.60;99.90;;;;;;5132194;27;20505;-41
2021/05/24 09:05:53;;;;;;;6.53;5.07;;;12.60;99.90;;;;;;5144767;27;20582;-41
2021/05/24 09:08:36;;;;;;;7.50;4.27;;;12.70;99.90;;;;;;5143420;27;20445;-41
2021/05/24 09:11:24;;;;;;;6.67;4.30;;;12.80;99.90;;;;;;5130162;27;20441;-40
2021/05/24 09:13:55;;;;;;;5.27;4.20;;;12.80;99.90;;;;;;5143828;27;21024;-39
2021/05/24 09:16:29;;;;;;;4.07;3.70;;;12.90;99.90;;;;;;5143803;27;20445;-41
2021/05/24 09:19:17;;;;;;;5.20;4.07;;;12.90;99.90;;;;;;5143798;27;20464;-41
2021/05/24 09:21:53;;;;;;;4.07;3.67;;;12.90;99.90;;;;;;5135488;27;20920;-41
2021/05/24 09:24:29;;;;;;;4.40;4.10;;;12.90;99.90;;;;;;5143101;27;20552;-41
2021/05/24 09:27:02;;;;;;;4.90;3.93;;;12.80;99.90;;;;;;5142278;27;20459;-38
2021/05/24 09:29:44;;;;;;;4.60;4.20;;;12.80;99.90;;;;;;5143009;27;20449;-40
2021/05/24 09:32:18;;;;;;;4.57;4.17;;;12.90;99.90;;;;;;5144150;27;20449;-41
2021/05/24 09:34:50;;;;;;;6.53;3.80;;;12.90;99.90;;;;;;5143746;27;20529;-40
2021/05/24 09:37:30;;;;;;;4.23;3.87;;;12.90;99.90;;;;;;5144123;27;20470;-41
2021/05/24 09:40:02;;;;;;;5.00;4.27;;;12.80;99.90;;;;;;5143435;27;20505;-41
2021/05/24 09:42:46;;;;;;;6.03;3.87;;;12.90;99.90;;;;;;5144235;27;20448;-41
2021/05/24 09:45:21;;;;;;;5.93;3.90;;;12.90;99.90;;;;;;5142315;27;20499;-41
2021/05/24 09:47:54;;;;;;;5.50;3.80;;;12.80;99.90;;;;;;5138760;27;20445;-41
2021/05/24 09:50:25;;;;;;;4.00;3.57;;;12.70;99.90;;;;;;5143430;27;20453;-41
2021/05/24 09:52:56;;;;;;;5.77;4.53;;;12.70;99.90;;;;;;5143972;27;20490;-41
2021/05/24 09:55:28;;;;;;;4.10;3.70;;;12.70;99.90;;;;;;5141714;27;20495;-41
2021/05/24 09:58:01;;;;;;;4.10;3.70;;;12.80;99.90;;;;;;5143828;27;20215;-39
2021/05/24 10:00:41;;;;;;;6.07;3.70;;;12.80;99.90;;;;;;5142535;27;21013;-41
2021/05/24 10:03:13;;;;;;;4.60;4.20;;;12.70;99.90;;;;;;5140113;27;20433;-41
2021/05/24 10:05:45;;;;;;;3.43;3.23;;;12.70;99.90;;;;;;5143730;27;20541;-42
2021/05/24 10:08:16;;;;;;;5.80;4.57;;;12.80;99.90;;;;;;5143447;27;20464;-41
2021/05/24 10:10:47;;;;;;;3.77;3.37;;;12.80;99.90;;;;;;5142696;27;20448;-41
2021/05/24 10:13:19;;;;;;;3.77;3.40;;;12.80;99.90;;;;;;5132815;27;20445;-40
2021/05/24 10:15:54;;;;;;;6.23;3.80;;;12.70;99.90;;;;;;5142200;27;20441;-43
2021/05/24 10:18:25;;;;;;;5.80;3.97;;;12.70;99.90;;;;;;5143358;27;20466;-41
2021/05/24 10:20:55;;;;;;;5.33;3.67;;;12.80;99.90;;;;;;5143224;28;20594;-42
2021/05/24 10:23:27;;;;;;;4.83;3.60;;;12.80;99.90;;;;;;5143650;28;20483;-40
2021/05/24 10:26:00;;;;;;;6.60;3.87;;;12.70;99.90;;;;;;5142291;28;20533;-41
2021/05/24 10:28:34;;;;;;;3.97;3.57;;;12.80;99.90;;;;;;5142066;28;20452;-41
2021/05/24 10:31:16;;;;;;;6.43;3.93;;;12.80;99.90;;;;;;5143318;28;20540;-42
2021/05/24 10:33:48;;;;;;;5.30;3.63;;;12.80;99.90;;;;;;5142912;28;20781;-41
2021/05/24 10:36:29;;;;;;;3.57;3.27;;;12.80;99.90;;;;;;5143269;28;20537;-41
2021/05/24 10:39:13;;;;;;;4.37;3.20;;;12.80;99.90;;;;;;5142867;28;20478;-41
2021/05/24 10:41:48;;;;;;;6.40;4.90;;;12.90;99.90;;;;;;5143245;28;20460;-41
2021/05/24 10:44:21;;;;;;;5.43;3.95;;;12.80;99.90;;;;;;5129877;28;20458;-41
2021/05/24 10:46:53;;;;;;;5.87;4.00;;;12.80;99.90;;;;;;5139352;28;20219;-42
2021/05/24 10:49:27;;;;;;;6.20;3.43;;;12.80;99.90;;;;;;5142708;28;20505;-41
2021/05/24 10:52:03;;;;;;;3.53;3.27;;;12.70;99.90;;;;;;5143198;28;20440;-40
2021/05/24 10:54:42;;;;;;;4.83;3.10;;;12.70;99.90;;;;;;5140977;28;20449;-42
2021/05/24 10:57:22;;;;;;;4.23;3.57;;;12.60;99.90;;;;;;5139108;28;20452;-42
2021/05/24 11:00:01;;;;;;;4.60;3.23;;;12.70;99.90;;;;;;5141807;28;20489;-42
2021/05/24 11:02:39;;;;;;;4.90;3.33;;;12.70;99.90;;;;;;5138787;28;20501;-42
2021/05/24 11:05:32;;;;;;;3.50;3.20;;;12.70;99.90;;;;;;5127343;28;20440;-42
2021/05/24 11:08:06;;;;;;;6.13;3.80;;;12.70;99.90;;;;;;5142918;28;20449;-41
2021/05/24 11:10:48;;;;;;;3.87;2.93;;;12.60;99.90;;;;;;5140665;28;20203;-41
2021/05/24 11:13:24;;;;;;;4.40;3.60;;;12.60;99.90;;;;;;5131142;28;20755;-41
2021/05/24 11:15:56;;;;;;;3.70;3.07;;;12.60;99.90;;;;;;5141918;28;20447;-40
2021/05/24 11:18:28;;;;;;;5.33;3.10;;;12.60;99.90;;;;;;5143116;28;20451;-41
2021/05/24 11:21:19;;;;;;;3.83;3.03;;;12.60;99.90;;;;;;5142732;28;20532;-41
2021/05/24 11:24:10;;;;;;;4.97;3.70;;;12.60;99.90;;;;;;5142986;28;21025;-41
2021/05/24 11:26:41;;;;;;;6.70;3.55;;;12.60;99.90;;;;;;5146242;27;20494;-40
2021/05/24 11:29:14;;;;;;;3.50;3.20;;;12.60;99.90;;;;;;5128648;27;20204;-41
2021/05/24 11:31:54;;;;;;;5.70;3.73;;;12.60;99.90;;;;;;5145787;27;20437;-41
2021/05/24 11:34:39;;;;;;;5.32;3.42;;;12.50;99.90;;;;;;5146790;27;20448;-42
2021/05/24 11:37:10;;;;;;;7.67;3.63;;;12.50;99.90;;;;;;5146525;27;20560;-41
2021/05/24 11:39:46;;;;;;;5.20;3.60;;;12.50;99.90;;;;;;5145456;27;20532;-41
2021/05/24 11:42:23;;;;;;;8.30;3.20;;;12.50;99.90;;;;;;5145654;27;20214;-41
2021/05/24 11:44:57;;;;;;;4.23;3.63;;;12.50;99.90;;;;;;5144602;27;20453;-40
2021/05/24 11:47:29;;;;;;;5.40;3.43;;;12.50;99.90;;;;;;5145832;27;20476;-41
2021/05/24 11:50:01;;;;;;;6.87;3.53;;;12.50;99.90;;;;;;5146000;27;20480;-41
2021/05/24 11:52:34;;;;;;;7.37;3.40;;;12.40;99.90;;;;;;5146816;27;20548;-41
2021/05/24 11:55:11;;;;;;;4.10;3.70;;;12.40;99.90;;;;;;5145525;27;20513;-40
2021/05/24 11:57:43;;;;;;;5.23;3.90;;;12.40;99.90;;;;;;5146198;27;20555;-41
2021/05/24 12:00:18;;;;;;;5.10;3.90;;;12.40;99.90;;;;;;5144637;27;20497;-41
2021/05/24 12:02:49;;;;;;;6.20;5.40;;;12.30;99.90;;;;;;5146254;27;20455;-41
2021/05/24 12:05:21;;;;;;;6.97;4.20;;;12.40;99.90;;;;;;5141577;27;20425;-41
2021/05/24 12:07:54;;;;;;;5.87;4.20;;;12.40;99.90;;;;;;5146387;27;20962;-41
2021/05/24 12:10:25;;;;;;;6.10;3.63;;;12.30;99.90;;;;;;5144115;27;20449;-41
2021/05/24 12:12:57;;;;;;;5.10;3.67;;;12.40;99.90;;;;;;5145030;27;20533;-40
2021/05/24 12:15:27;;;;;;;6.95;4.00;;;12.40;99.90;;;;;;5127920;27;20444;-41
2021/05/24 12:18:00;;;;;;;5.93;4.40;;;12.40;99.90;;;;;;5142139;27;20263;-41
2021/05/24 12:20:30;;;;;;;5.10;4.60;;;12.40;99.90;;;;;;5142895;27;20460;-39
2021/05/24 12:23:01;;;;;;;4.40;3.77;;;12.40;99.90;;;;;;5145800;27;20449;-42
2021/05/24 12:25:31;;;;;;;5.60;4.47;;;12.30;99.90;;;;;;5145395;27;20545;-42
2021/05/24 12:28:05;;;;;;;7.05;4.60;;;12.30;99.90;;;;;;5145116;27;20453;-41
2021/05/24 12:30:42;;;;;;;7.75;4.45;;;12.30;99.90;;;;;;5143191;27;20236;-40
2021/05/24 12:33:15;;;;;;;4.70;3.85;;;12.20;99.90;;;;;;5145455;27;20199;-41
2021/05/24 12:35:49;;;;;;;4.90;3.90;;;12.20;99.90;;;;;;5145448;27;20252;-41
2021/05/24 12:38:28;;;;;;;3.95;3.65;;;12.20;99.90;;;;;;5144707;27;20219;-42
2021/05/24 12:41:00;;;;;;;6.40;4.20;;;12.20;99.90;;;;;;5143830;27;20252;-40
2021/05/24 12:43:31;;;;;;;5.20;4.77;;;12.20;99.90;;;;;;5144089;27;20284;-41
2021/05/24 12:46:04;;;;;;;4.15;3.83;;;12.10;99.90;;;;;;5144752;27;20504;-41
2021/05/24 12:48:42;;;;;;;4.40;4.00;;;12.10;99.90;;;;;;5144736;27;20265;-41
2021/05/24 12:51:18;;;;;;;5.00;4.50;;;12.10;99.90;;;;;;5144789;27;20444;-41
2021/05/24 12:53:57;;;;;;;5.10;4.70;;;12.10;99.90;;;;;;5145250;27;20247;-41
2021/05/24 12:56:37;;;;;;;4.88;4.25;;;12.10;99.90;;;;;;5144773;27;20267;-42
2021/05/24 12:59:15;;;;;;;4.60;4.15;;;12.10;99.90;;;;;;5143694;27;20207;-40
2021/05/24 13:01:46;;;;;;;4.63;4.20;;;12.10;99.90;;;;;;5144375;27;20195;-40
2021/05/24 13:04:19;;;;;;;5.35;3.40;;;12.10;99.90;;;;;;5144796;27;20199;-41
2021/05/24 13:06:53;;;;;;;3.60;3.35;;;12.10;99.90;;;;;;5144595;27;20225;-41
2021/05/24 13:09:26;;;;;;;3.27;2.90;;;12.10;99.90;;;;;;5143558;27;20180;-41
2021/05/24 13:12:00;;;;;;;5.07;3.30;;;12.00;99.90;;;;;;5143464;27;20834;-41
2021/05/24 13:14:33;;;;;;;4.50;3.13;;;12.00;99.90;;;;;;5143429;27;20211;-41